Time;durP1;ratioP1;P1;durP2;ratioP2;P2;SDS_P1;SDS_P2;PMS_P1;PMS_P2;Temp;Humidity;BMP_temperature;BMP_pressure;BME280_temperature;BME280_humidity;BME280_pressure;Samples;Min_cycle;Max_cycle;Signal;HPM_P1;HPM_P2
2023/08/20 00:02:12;;;;;;;10.60;9.80;;;;;;;20.68;nan;97305.91;5017227;28;20200;-62
2023/08/20 00:04:41;;;;;;;11.83;10.60;;;;;;;20.69;nan;97296.78;5018618;28;20247;-63
2023/08/20 00:07:09;;;;;;;11.10;10.10;;;;;;;20.72;nan;97295.44;4886527;28;20228;-62
2023/08/20 00:09:37;;;;;;;10.80;9.90;;;;;;;20.77;nan;97296.34;5018964;28;20203;-62
2023/08/20 00:12:05;;;;;;;10.63;9.93;;;;;;;20.76;nan;97289.34;5016746;28;20228;-63
2023/08/20 00:14:58;;;;;;;12.80;11.67;;;;;;;20.74;nan;97288.75;5014664;28;20205;-60
2023/08/20 00:17:27;;;;;;;12.80;11.80;;;;;;;20.68;nan;97295.13;5014115;28;20214;-63
2023/08/20 00:19:55;;;;;;;13.20;12.03;;;;;;;20.65;nan;97304.50;5020187;28;20694;-65
2023/08/20 00:22:24;;;;;;;12.73;11.67;;;;;;;20.70;nan;97293.00;5011563;28;20204;-64
2023/08/20 00:24:52;;;;;;;12.33;11.10;;;;;;;20.68;nan;97289.75;5017719;28;20790;-61
2023/08/20 00:27:20;;;;;;;12.73;11.63;;;;;;;20.66;nan;97281.91;5015386;28;20240;-62
2023/08/20 00:29:48;;;;;;;11.83;10.93;;;;;;;20.65;nan;97282.97;5018558;28;20201;-61
2023/08/20 00:32:17;;;;;;;11.23;10.33;;;;;;;20.66;nan;97279.22;5015084;28;21853;-62
2023/08/20 00:34:45;;;;;;;12.53;11.43;;;;;;;20.68;nan;97276.28;5016711;28;20200;-62
2023/08/20 00:37:13;;;;;;;12.43;11.43;;;;;;;20.68;nan;97269.03;5012880;28;20201;-62
2023/08/20 00:39:40;;;;;;;10.70;10.00;;;;;;;20.69;nan;97275.25;5014840;28;20204;-62
2023/08/20 00:42:08;;;;;;;11.10;10.20;;;;;;;20.62;nan;97267.31;4888920;28;20224;-63
2023/08/20 00:44:36;;;;;;;11.03;9.93;;;;;;;20.58;nan;97265.34;5017836;28;20208;-62
2023/08/20 00:47:05;;;;;;;12.63;10.70;;;;;;;20.51;nan;97263.66;5014792;28;20231;-61
2023/08/20 00:49:35;;;;;;;10.70;9.90;;;;;;;20.50;nan;97261.22;5016188;28;20204;-62
2023/08/20 00:52:03;;;;;;;10.87;10.07;;;;;;;20.49;nan;97265.78;5011223;28;21081;-61
2023/08/20 00:54:33;;;;;;;10.90;9.90;;;;;;;20.45;nan;97258.44;5017551;28;20231;-62
2023/08/20 00:57:02;;;;;;;11.00;10.10;;;;;;;20.46;nan;97266.28;5013410;28;20316;-60
2023/08/20 00:59:29;;;;;;;10.50;9.60;;;;;;;20.33;nan;97251.28;5018649;28;20216;-61
2023/08/20 01:01:57;;;;;;;9.67;8.90;;;;;;;20.46;nan;97268.97;5013504;28;20219;-61
2023/08/20 01:04:25;;;;;;;10.10;9.23;;;;;;;20.45;nan;97275.41;5017122;28;20208;-62
2023/08/20 01:07:01;;;;;;;10.33;9.43;;;;;;;20.44;nan;97278.34;5014998;28;20228;-62
2023/08/20 01:09:38;;;;;;;11.27;10.27;;;;;;;20.33;nan;97285.47;5018708;28;20222;-61
2023/08/20 01:12:07;;;;;;;11.97;10.73;;;;;;;20.22;nan;97281.78;4884916;28;20243;-61
2023/08/20 01:14:35;;;;;;;10.27;9.47;;;;;;;20.15;nan;97286.50;5016792;28;20200;-61
2023/08/20 01:17:03;;;;;;;11.73;10.73;;;;;;;20.08;nan;97286.66;5014170;28;20940;-63
2023/08/20 01:19:31;;;;;;;11.53;10.63;;;;;;;20.03;nan;97289.25;5018772;28;20204;-63
2023/08/20 01:22:14;;;;;;;11.33;10.53;;;;;;;19.94;nan;97297.72;5015483;28;20201;-63
2023/08/20 01:24:48;;;;;;;12.27;11.27;;;;;;;19.90;nan;97304.66;5017183;28;20227;-62
2023/08/20 01:27:30;;;;;;;11.57;10.77;;;;;;;19.90;nan;97312.72;5015213;28;20211;-61
2023/08/20 01:29:59;;;;;;;12.27;11.17;;;;;;;19.89;nan;97312.91;5016690;28;20210;-62
2023/08/20 01:32:27;;;;;;;12.40;11.37;;;;;;;19.81;nan;97308.72;5014637;28;20296;-62
2023/08/20 01:34:56;;;;;;;12.07;11.00;;;;;;;19.83;nan;97322.75;5014891;28;20204;-62
2023/08/20 01:37:24;;;;;;;14.73;13.33;;;;;;;19.79;nan;97319.75;5010951;28;20196;-62
2023/08/20 01:39:51;;;;;;;14.03;12.63;;;;;;;19.81;nan;97323.00;5017620;28;20208;-63
2023/08/20 01:42:19;;;;;;;12.83;11.70;;;;;;;19.79;nan;97322.44;5017078;28;20232;-63
2023/08/20 01:44:47;;;;;;;12.17;11.27;;;;;;;19.79;nan;97329.66;5018658;28;21204;-63
2023/08/20 01:47:16;;;;;;;11.17;10.27;;;;;;;19.76;nan;97330.16;4895615;28;20208;-62
2023/08/20 01:49:44;;;;;;;12.17;11.17;;;;;;;19.75;nan;97329.34;5019143;28;20211;-60
2023/08/20 01:52:12;;;;;;;11.83;10.93;;;;;;;19.74;nan;97327.72;5010921;28;20217;-62
2023/08/20 01:54:39;;;;;;;11.77;10.93;;;;;;;19.67;nan;97330.53;5014299;28;20208;-62
2023/08/20 01:57:07;;;;;;;11.53;10.47;;;;;;;19.65;nan;97334.50;5014147;28;20228;-63
2023/08/20 01:59:35;;;;;;;11.13;10.23;;;;;;;19.65;nan;97329.13;5018630;28;21020;-62
2023/08/20 02:02:04;;;;;;;11.23;10.33;;;;;;;19.57;nan;97324.13;5006598;28;20624;-62
2023/08/20 02:04:33;;;;;;;11.50;10.50;;;;;;;19.66;nan;97336.97;5018395;28;20204;-61
2023/08/20 02:07:01;;;;;;;10.10;9.40;;;;;;;19.66;nan;97345.03;5012008;28;20235;-62
2023/08/20 02:09:28;;;;;;;11.17;10.17;;;;;;;19.66;nan;97342.34;5021537;28;20208;-61
2023/08/20 02:11:56;;;;;;;11.30;10.33;;;;;;;19.69;nan;97346.41;5014818;28;20410;-61
2023/08/20 02:14:24;;;;;;;10.93;10.20;;;;;;;19.71;nan;97340.81;5017134;28;20204;-62
2023/08/20 02:16:51;;;;;;;11.37;10.57;;;;;;;19.74;nan;97341.16;4878680;28;20236;-61
2023/08/20 02:19:19;;;;;;;11.83;10.97;;;;;;;19.77;nan;97346.03;5014800;28;20277;-61
2023/08/20 02:21:48;;;;;;;12.03;11.07;;;;;;;19.81;nan;97338.31;5010609;28;20208;-60
2023/08/20 02:24:16;;;;;;;11.37;10.57;;;;;;;19.82;nan;97337.25;5016438;28;20208;-62
2023/08/20 02:26:44;;;;;;;11.40;10.47;;;;;;;19.83;nan;97354.19;5012385;28;20620;-62
2023/08/20 02:29:11;;;;;;;10.37;9.57;;;;;;;19.84;nan;97345.09;5016671;28;20592;-61
2023/08/20 02:31:39;;;;;;;11.23;10.40;;;;;;;19.81;nan;97357.13;5012655;28;20197;-60
2023/08/20 02:34:07;;;;;;;10.90;10.00;;;;;;;19.83;nan;97359.59;5014449;28;20270;-62
2023/08/20 02:36:34;;;;;;;10.57;9.77;;;;;;;19.84;nan;97363.91;5010921;28;20232;-61
2023/08/20 02:39:05;;;;;;;12.17;10.90;;;;;;;19.83;nan;97363.06;5014263;28;20208;-61
2023/08/20 02:41:35;;;;;;;11.80;10.73;;;;;;;19.84;nan;97363.91;5013460;28;20200;-61
2023/08/20 02:44:03;;;;;;;11.70;10.70;;;;;;;19.83;nan;97364.97;5024005;28;20212;-64
2023/08/20 02:46:31;;;;;;;12.30;11.40;;;;;;;19.83;nan;97364.97;5020616;28;20401;-61
2023/08/20 02:48:59;;;;;;;12.80;11.67;;;;;;;19.85;nan;97371.72;5021741;28;20584;-60
2023/08/20 02:51:27;;;;;;;11.53;10.63;;;;;;;19.90;nan;97374.56;4885209;28;20667;-62
2023/08/20 02:53:54;;;;;;;11.70;10.70;;;;;;;19.87;nan;97374.97;5020298;28;20224;-63
2023/08/20 02:56:23;;;;;;;12.20;11.30;;;;;;;19.84;nan;97374.66;5019598;28;20232;-62
2023/08/20 02:58:51;;;;;;;13.07;12.07;;;;;;;19.84;nan;97366.59;5018301;28;20224;-62
2023/08/20 03:01:20;;;;;;;12.67;11.67;;;;;;;19.83;nan;97367.66;5019925;28;20305;-62
2023/08/20 03:03:47;;;;;;;13.77;12.57;;;;;;;19.78;nan;97369.19;5019332;28;20247;-62
2023/08/20 03:06:15;;;;;;;12.43;11.53;;;;;;;19.84;nan;97378.16;5017456;28;20229;-61
2023/08/20 03:08:43;;;;;;;13.07;11.97;;;;;;;19.81;nan;97370.56;5017824;28;20413;-62
2023/08/20 03:11:10;;;;;;;12.83;11.83;;;;;;;19.78;nan;97368.34;5016421;28;20704;-62
2023/08/20 03:13:39;;;;;;;14.83;13.33;;;;;;;19.77;nan;97374.78;5018421;28;20224;-61
2023/08/20 03:16:07;;;;;;;14.43;13.03;;;;;;;19.71;nan;97368.50;5015817;28;20235;-62
2023/08/20 03:18:35;;;;;;;13.37;12.20;;;;;;;19.71;nan;97370.38;5020907;28;20216;-60
2023/08/20 03:21:03;;;;;;;13.53;12.23;;;;;;;19.73;nan;97368.25;5017391;28;20208;-61
2023/08/20 03:23:30;;;;;;;14.20;12.97;;;;;;;19.72;nan;97372.00;5016314;28;20211;-62
2023/08/20 03:25:58;;;;;;;12.87;11.87;;;;;;;19.72;nan;97372.84;4887424;28;20236;-62
2023/08/20 03:28:26;;;;;;;12.83;11.83;;;;;;;19.71;nan;97367.69;5021223;28;20205;-62
2023/08/20 03:30:55;;;;;;;13.33;12.23;;;;;;;19.67;nan;97368.16;5014645;28;20214;-61
2023/08/20 03:33:23;;;;;;;13.97;12.53;;;;;;;19.64;nan;97368.63;5021411;28;20216;-61
2023/08/20 03:35:50;;;;;;;13.53;12.33;;;;;;;19.61;nan;97369.13;5014436;28;20231;-61
2023/08/20 03:38:18;;;;;;;13.70;12.53;;;;;;;19.59;nan;97371.22;5019124;28;20200;-63
2023/08/20 03:40:46;;;;;;;14.33;12.93;;;;;;;19.60;nan;97375.53;5017085;28;20231;-62
2023/08/20 03:43:13;;;;;;;12.80;11.90;;;;;;;19.59;nan;97371.22;5019068;28;20356;-61
2023/08/20 03:45:41;;;;;;;12.13;11.30;;;;;;;19.58;nan;97363.38;5015692;28;20228;-62
2023/08/20 03:48:10;;;;;;;12.37;11.40;;;;;;;19.57;nan;97370.66;5017063;28;20196;-61
2023/08/20 03:50:38;;;;;;;12.90;11.93;;;;;;;19.51;nan;97368.91;5015268;28;20863;-63
2023/08/20 03:53:05;;;;;;;13.17;12.07;;;;;;;19.44;nan;97362.84;5015986;28;20236;-60
2023/08/20 03:55:33;;;;;;;12.90;11.90;;;;;;;19.36;nan;97372.91;5017932;28;20860;-61
2023/08/20 03:58:01;;;;;;;13.90;12.47;;;;;;;19.29;nan;97372.22;5014017;28;20219;-61
2023/08/20 04:00:29;;;;;;;12.97;11.97;;;;;;;19.20;nan;97362.88;4896244;28;20774;-63
2023/08/20 04:02:57;;;;;;;13.83;12.43;;;;;;;19.15;nan;97373.53;4958623;28;20223;-62
2023/08/20 04:05:26;;;;;;;12.73;11.83;;;;;;;19.07;nan;97374.69;5018557;28;20219;-61
2023/08/20 04:07:53;;;;;;;12.53;11.63;;;;;;;19.02;nan;97379.94;5015794;28;20219;-62
2023/08/20 04:10:21;;;;;;;13.60;12.37;;;;;;;19.05;nan;97377.59;5019292;28;20325;-61
2023/08/20 04:12:49;;;;;;;12.67;11.77;;;;;;;19.03;nan;97377.00;5016223;28;20231;-61
2023/08/20 04:15:16;;;;;;;13.63;12.47;;;;;;;19.04;nan;97381.31;5019609;28;20879;-61
2023/08/20 04:17:45;;;;;;;13.27;12.27;;;;;;;19.03;nan;97379.69;5015136;28;20203;-62
2023/08/20 04:20:12;;;;;;;15.00;13.80;;;;;;;19.00;nan;97385.53;5017884;28;20278;-61
2023/08/20 04:22:42;;;;;;;13.97;12.70;;;;;;;18.97;nan;97387.84;5018814;28;20204;-62
2023/08/20 04:25:09;;;;;;;13.60;12.60;;;;;;;18.90;nan;97391.44;5019384;28;20275;-62
2023/08/20 04:27:37;;;;;;;13.13;12.20;;;;;;;18.85;nan;97391.31;5016454;28;20212;-62
2023/08/20 04:30:07;;;;;;;12.73;11.83;;;;;;;18.83;nan;97388.06;5014661;28;20212;-62
2023/08/20 04:32:34;;;;;;;13.23;12.03;;;;;;;18.87;nan;97393.78;4889951;28;20227;-62
2023/08/20 04:35:02;;;;;;;13.27;12.37;;;;;;;18.84;nan;97394.25;5019425;28;20285;-62
2023/08/20 04:37:30;;;;;;;12.53;11.60;;;;;;;18.82;nan;97393.69;5015951;28;20224;-61
2023/08/20 04:39:59;;;;;;;13.67;12.50;;;;;;;18.82;nan;97389.09;5020493;28;20257;-62
2023/08/20 04:42:26;;;;;;;13.17;11.97;;;;;;;18.74;nan;97382.22;5017444;28;20204;-62
2023/08/20 04:44:54;;;;;;;12.80;11.87;;;;;;;18.87;nan;97391.09;5013854;28;20215;-62
2023/08/20 04:47:22;;;;;;;13.53;12.63;;;;;;;18.88;nan;97390.06;5014815;28;20288;-62
2023/08/20 04:49:49;;;;;;;13.30;12.30;;;;;;;18.93;nan;97387.50;5014803;28;20204;-63
2023/08/20 04:52:18;;;;;;;12.23;11.33;;;;;;;18.96;nan;97389.72;5013487;28;20199;-61
2023/08/20 04:54:46;;;;;;;13.60;12.57;;;;;;;19.01;nan;97402.47;5015334;28;20227;-62
2023/08/20 04:57:16;;;;;;;13.97;12.87;;;;;;;19.07;nan;97410.41;5014274;28;20240;-62
2023/08/20 04:59:45;;;;;;;13.37;12.47;;;;;;;19.13;nan;97402.44;5020032;28;20200;-63
2023/08/20 05:02:12;;;;;;;12.80;11.70;;;;;;;19.15;nan;97403.06;5014816;28;20328;-61
2023/08/20 05:04:40;;;;;;;14.67;13.33;;;;;;;19.20;nan;97406.66;5017818;28;20204;-62
2023/08/20 05:07:08;;;;;;;13.13;12.03;;;;;;;19.27;nan;97411.91;4884160;28;20236;-62
2023/08/20 05:09:36;;;;;;;14.27;12.93;;;;;;;19.28;nan;97396.59;5017509;28;20200;-61
2023/08/20 05:12:04;;;;;;;12.77;11.77;;;;;;;19.42;nan;97400.69;5014796;28;21543;-61
2023/08/20 05:14:33;;;;;;;12.97;11.93;;;;;;;19.55;nan;97407.69;5017641;28;20469;-62
2023/08/20 05:17:01;;;;;;;14.10;13.00;;;;;;;19.67;nan;97410.31;5014649;28;20228;-61
2023/08/20 05:19:28;;;;;;;13.27;12.27;;;;;;;19.83;nan;97405.28;5015773;28;20212;-61
2023/08/20 05:21:58;;;;;;;13.27;12.27;;;;;;;19.96;nan;97407.72;5012456;28;20278;-62
2023/08/20 05:24:26;;;;;;;12.70;11.70;;;;;;;20.06;nan;97410.59;5018040;28;20227;-62
2023/08/20 05:27:09;;;;;;;13.17;12.27;;;;;;;20.12;nan;97406.13;5011858;28;20246;-60
2023/08/20 05:29:39;;;;;;;14.13;13.03;;;;;;;20.19;nan;97401.41;5017313;28;20693;-61
2023/08/20 05:32:07;;;;;;;11.93;10.93;;;;;;;20.32;nan;97400.31;5015517;28;20204;-61
2023/08/20 05:34:35;;;;;;;12.77;11.77;;;;;;;20.41;nan;97389.16;5017116;28;20244;-62
2023/08/20 05:37:03;;;;;;;13.47;12.13;;;;;;;20.53;nan;97390.72;4882955;28;20240;-63
2023/08/20 05:39:33;;;;;;;13.43;12.53;;;;;;;20.70;nan;97389.09;5017685;28;20212;-62
2023/08/20 05:42:01;;;;;;;14.80;13.53;;;;;;;20.88;nan;97386.19;5012912;28;20205;-63
2023/08/20 05:44:29;;;;;;;13.13;11.93;;;;;;;21.07;nan;97397.53;5014236;28;20208;-63
2023/08/20 05:46:58;;;;;;;12.30;11.50;;;;;;;21.23;nan;97397.75;5010835;28;20471;-62
2023/08/20 05:49:26;;;;;;;12.70;11.80;;;;;;;21.35;nan;97401.13;5024015;28;20652;-64
2023/08/20 05:51:56;;;;;;;13.07;12.17;;;;;;;21.55;nan;97397.91;5017006;28;20204;-62
2023/08/20 05:54:24;;;;;;;13.03;12.07;;;;;;;21.63;nan;97395.84;5016702;28;20228;-62
2023/08/20 05:56:52;;;;;;;12.30;11.20;;;;;;;21.80;nan;97388.53;5013975;28;20231;-62
2023/08/20 05:59:19;;;;;;;11.97;11.07;;;;;;;21.85;nan;97387.78;4956432;28;20227;-63
2023/08/20 06:01:47;;;;;;;13.20;11.87;;;;;;;21.92;nan;97399.19;5018726;28;20671;-62
2023/08/20 06:04:18;;;;;;;12.53;11.57;;;;;;;21.93;nan;97389.19;5013548;28;20192;-61
2023/08/20 06:06:46;;;;;;;12.53;11.50;;;;;;;22.13;nan;97394.00;5017560;28;20236;-61
2023/08/20 06:09:14;;;;;;;13.00;12.00;;;;;;;22.33;nan;97387.19;4883031;28;20224;-63
2023/08/20 06:11:41;;;;;;;12.53;11.73;;;;;;;22.43;nan;97391.88;5017075;28;20205;-62
2023/08/20 06:14:09;;;;;;;13.20;12.10;;;;;;;22.48;nan;97389.25;5013461;28;20227;-62
2023/08/20 06:16:37;;;;;;;12.43;11.53;;;;;;;22.57;nan;97389.59;4986110;28;20919;-62
2023/08/20 06:19:05;;;;;;;13.17;12.17;;;;;;;22.69;nan;97388.34;4994385;28;20619;-63
2023/08/20 06:21:34;;;;;;;13.23;12.23;;;;;;;22.69;nan;97388.34;5019938;28;20679;-62
2023/08/20 06:24:02;;;;;;;13.23;12.23;;;;;;;22.87;nan;97390.91;5015270;28;20207;-61
2023/08/20 06:26:30;;;;;;;14.70;13.50;;;;;;;22.87;nan;97390.91;5022141;28;20224;-62
2023/08/20 06:28:58;;;;;;;12.67;11.67;;;;;;;23.06;nan;97394.84;5016667;28;20227;-62
2023/08/20 06:31:26;;;;;;;13.37;12.07;;;;;;;23.20;nan;97394.38;5021472;28;20632;-62
2023/08/20 06:33:54;;;;;;;13.40;12.30;;;;;;;23.32;nan;97397.75;5018790;28;20208;-62
2023/08/20 06:36:22;;;;;;;12.63;11.73;;;;;;;23.57;nan;97396.22;5021522;28;20242;-63
2023/08/20 06:38:51;;;;;;;12.17;11.27;;;;;;;23.63;nan;97368.13;5017170;28;20204;-63
2023/08/20 06:41:19;;;;;;;12.63;11.73;;;;;;;24.02;nan;97390.47;5009241;28;20204;-63
2023/08/20 06:43:47;;;;;;;11.00;10.30;;;;;;;24.47;nan;97388.13;4909944;28;20204;-62
2023/08/20 06:46:15;;;;;;;12.03;11.13;;;;;;;24.59;nan;97396.78;5020618;28;20825;-62
2023/08/20 06:48:43;;;;;;;10.67;9.97;;;;;;;24.42;nan;97405.16;5015853;28;20671;-63
2023/08/20 06:51:15;;;;;;;10.30;9.50;;;;;;;24.23;nan;97405.69;5019201;28;20231;-62
2023/08/20 06:53:42;;;;;;;10.77;10.07;;;;;;;24.32;nan;97405.16;5015070;28;20204;-61
2023/08/20 06:56:12;;;;;;;10.03;9.33;;;;;;;24.54;nan;97400.31;5019653;28;20229;-62
2023/08/20 06:58:40;;;;;;;8.10;7.60;;;;;;;24.71;nan;97400.06;5013543;28;20226;-62
2023/08/20 07:01:08;;;;;;;8.90;8.20;;;;;;;24.73;nan;97397.06;5020602;28;20303;-62
2023/08/20 07:03:37;;;;;;;9.80;9.10;;;;;;;24.92;nan;97401.97;5017460;28;20216;-62
2023/08/20 07:06:06;;;;;;;11.93;10.93;;;;;;;24.90;nan;97404.94;5017782;28;20232;-62
2023/08/20 07:08:34;;;;;;;9.90;9.03;;;;;;;24.89;nan;97402.53;5019240;28;20223;-61
2023/08/20 07:11:02;;;;;;;16.93;15.53;;;;;;;24.99;nan;97406.00;5017762;28;20209;-62
2023/08/20 07:13:31;;;;;;;10.70;9.90;;;;;;;25.14;nan;97405.19;5016709;28;20205;-63
2023/08/20 07:15:59;;;;;;;9.07;8.37;;;;;;;25.22;nan;97405.75;5020673;28;20232;-63
2023/08/20 07:18:26;;;;;;;9.67;8.87;;;;;;;25.33;nan;97403.78;4893431;28;20220;-64
2023/08/20 07:20:54;;;;;;;8.80;8.20;;;;;;;25.36;nan;97395.09;5020115;28;20208;-63
2023/08/20 07:23:22;;;;;;;8.67;8.07;;;;;;;25.50;nan;97407.06;5016642;28;20273;-63
2023/08/20 07:25:52;;;;;;;8.97;8.37;;;;;;;25.73;nan;97412.91;5020505;28;20221;-63
2023/08/20 07:28:56;;;;;;;9.00;8.40;;;;;;;25.66;nan;97417.84;5018896;28;20209;-63
2023/08/20 07:31:09;;;;;;;9.17;8.43;;;;;;;25.67;nan;97414.84;5019691;28;20238;-64
2023/08/20 07:33:37;;;;;;;10.53;9.63;;;;;;;25.87;nan;97415.84;5015855;28;20406;-63
2023/08/20 07:36:05;;;;;;;10.60;9.67;;;;;;;25.86;nan;97414.22;5017907;28;20236;-63
2023/08/20 07:38:33;;;;;;;10.47;9.73;;;;;;;25.98;nan;97422.06;5014692;28;20590;-64
2023/08/20 07:41:01;;;;;;;9.97;9.27;;;;;;;25.90;nan;97418.00;5020333;28;20204;-62
2023/08/20 07:43:28;;;;;;;11.23;10.43;;;;;;;25.91;nan;97416.13;5012776;28;20220;-63
2023/08/20 07:45:56;;;;;;;12.33;11.27;;;;;;;25.88;nan;97403.13;5018948;28;20300;-63
2023/08/20 07:48:25;;;;;;;10.33;9.53;;;;;;;26.11;nan;97426.06;5013462;28;20206;-63
2023/08/20 07:50:53;;;;;;;10.30;9.47;;;;;;;26.03;nan;97421.22;5021217;28;20217;-63
2023/08/20 07:53:20;;;;;;;8.67;7.93;;;;;;;26.17;nan;97422.25;4891259;28;20223;-62
2023/08/20 07:55:49;;;;;;;9.67;9.07;;;;;;;26.12;nan;97420.34;5019999;28;20239;-63
2023/08/20 07:58:16;;;;;;;9.53;8.83;;;;;;;26.42;nan;97415.84;5016059;28;20216;-62
2023/08/20 08:00:44;;;;;;;9.53;8.93;;;;;;;26.37;nan;97412.38;5020615;28;20208;-63
2023/08/20 08:03:14;;;;;;;8.60;8.10;;;;;;;26.41;nan;97408.81;5015679;28;20710;-62
2023/08/20 08:05:47;;;;;;;9.83;8.93;;;;;;;26.55;nan;97410.91;5022170;28;20220;-62
2023/08/20 08:08:15;;;;;;;8.40;7.90;;;;;;;26.65;nan;97410.00;5016017;28;20231;-63
2023/08/20 08:10:44;;;;;;;8.40;7.90;;;;;;;26.46;nan;97418.84;5020190;28;20205;-62
2023/08/20 08:13:12;;;;;;;9.43;8.83;;;;;;;26.66;nan;97417.88;5018023;28;20214;-62
2023/08/20 08:15:40;;;;;;;8.23;7.73;;;;;;;26.91;nan;97412.53;5017675;28;20694;-62
2023/08/20 08:18:08;;;;;;;9.00;8.10;;;;;;;26.83;nan;97422.91;5016203;28;20557;-63
2023/08/20 08:20:36;;;;;;;8.53;8.03;;;;;;;26.97;nan;97416.81;5020176;28;20213;-62
2023/08/20 08:23:05;;;;;;;8.80;8.10;;;;;;;26.98;nan;97423.88;4888744;28;20289;-62
2023/08/20 08:25:33;;;;;;;9.27;8.47;;;;;;;26.97;nan;97417.66;5020960;28;20226;-62
2023/08/20 08:28:01;;;;;;;9.10;8.50;;;;;;;27.24;nan;97423.66;5016484;28;20207;-61
2023/08/20 08:30:30;;;;;;;9.10;8.53;;;;;;;27.33;nan;97412.97;5018764;28;20231;-62
2023/08/20 08:32:57;;;;;;;8.47;7.80;;;;;;;27.41;nan;97420.50;5018051;28;20225;-62
2023/08/20 08:35:25;;;;;;;9.23;8.63;;;;;;;27.45;nan;97418.81;5015710;28;20231;-62
2023/08/20 08:37:53;;;;;;;9.60;8.90;;;;;;;27.53;nan;97418.22;5014734;28;20212;-62
2023/08/20 08:40:22;;;;;;;8.57;7.90;;;;;;;27.58;nan;97426.31;5018027;28;20845;-63
2023/08/20 08:42:50;;;;;;;8.70;8.20;;;;;;;27.80;nan;97424.97;5017001;28;20204;-63
2023/08/20 08:45:19;;;;;;;7.93;7.53;;;;;;;27.87;nan;97421.91;5016211;28;20231;-63
2023/08/20 08:47:48;;;;;;;8.60;8.10;;;;;;;27.87;nan;97427.34;5015274;28;20216;-63
2023/08/20 08:50:16;;;;;;;7.83;7.43;;;;;;;28.02;nan;97426.31;5018338;28;20214;-62
2023/08/20 08:52:46;;;;;;;8.20;7.43;;;;;;;27.93;nan;97430.81;5016752;28;20238;-64
2023/08/20 08:55:13;;;;;;;8.17;7.47;;;;;;;27.77;nan;97427.47;5020759;28;20211;-63
2023/08/20 08:57:42;;;;;;;8.60;8.10;;;;;;;27.85;nan;97430.34;4893090;28;20702;-62
2023/08/20 09:00:11;;;;;;;7.57;7.07;;;;;;;28.14;nan;97436.78;5017792;28;20208;-63
2023/08/20 09:02:39;;;;;;;7.33;6.73;;;;;;;28.21;nan;97434.53;5014936;28;20264;-62
2023/08/20 09:05:07;;;;;;;7.37;6.87;;;;;;;28.47;nan;97439.66;5016457;28;20200;-62
2023/08/20 09:07:35;;;;;;;7.37;6.83;;;;;;;28.33;nan;97433.31;5013730;28;20216;-61
2023/08/20 09:10:03;;;;;;;7.07;6.67;;;;;;;28.45;nan;97436.41;5017699;28;20411;-62
2023/08/20 09:12:35;;;;;;;7.70;7.00;;;;;;;28.39;nan;97440.31;5015187;28;20204;-63
2023/08/20 09:15:10;;;;;;;7.17;6.77;;;;;;;28.46;nan;97443.47;5019394;28;20207;-62
2023/08/20 09:17:38;;;;;;;7.33;6.67;;;;;;;28.63;nan;97444.88;5013995;28;20735;-63
2023/08/20 09:20:07;;;;;;;6.77;6.30;;;;;;;28.75;nan;97451.47;5013208;28;20212;-61
2023/08/20 09:22:36;;;;;;;6.67;6.27;;;;;;;28.71;nan;97445.00;5013743;28;20921;-62
2023/08/20 09:25:05;;;;;;;5.93;5.53;;;;;;;28.91;nan;97440.38;5017922;28;20211;-63
2023/08/20 09:27:39;;;;;;;6.27;5.97;;;;;;;28.80;nan;97436.19;4884100;28;20592;-62
2023/08/20 09:30:10;;;;;;;6.50;5.90;;;;;;;28.83;nan;97433.66;5016283;28;20900;-62
2023/08/20 09:32:37;;;;;;;7.13;6.50;;;;;;;28.92;nan;97441.16;5014044;28;20305;-62
2023/08/20 09:35:06;;;;;;;6.53;6.13;;;;;;;29.01;nan;97440.19;5016818;28;20216;-63
2023/08/20 09:37:34;;;;;;;6.37;5.97;;;;;;;29.07;nan;97443.66;5013098;28;20708;-62
2023/08/20 09:40:03;;;;;;;6.70;6.20;;;;;;;29.23;nan;97446.91;5018240;28;20229;-62
2023/08/20 09:42:32;;;;;;;6.03;5.73;;;;;;;29.18;nan;97447.81;5013846;28;20208;-62
2023/08/20 09:45:04;;;;;;;6.20;5.80;;;;;;;29.42;nan;97443.31;5018258;28;20635;-63
2023/08/20 09:47:36;;;;;;;5.57;5.23;;;;;;;29.28;nan;97441.38;5016140;28;20328;-62
2023/08/20 09:50:09;;;;;;;6.17;5.67;;;;;;;29.56;nan;97435.97;5016417;28;20212;-62
2023/08/20 09:52:40;;;;;;;7.37;6.87;;;;;;;29.63;nan;97437.50;5014459;28;20207;-62
2023/08/20 09:55:09;;;;;;;6.50;5.90;;;;;;;29.50;nan;97431.72;5017425;28;20212;-62
2023/08/20 09:57:38;;;;;;;6.13;5.73;;;;;;;29.66;nan;97436.88;4886559;28;20225;-65
2023/08/20 10:00:09;;;;;;;6.20;5.80;;;;;;;29.59;nan;97435.38;5019233;28;20223;-63
2023/08/20 10:02:39;;;;;;;5.97;5.67;;;;;;;29.56;nan;97429.69;4952205;28;20564;-64
2023/08/20 10:05:08;;;;;;;6.07;5.60;;;;;;;29.68;nan;97432.72;5018973;28;20220;-61
2023/08/20 10:07:36;;;;;;;5.97;5.57;;;;;;;29.80;nan;97440.41;5013541;28;20584;-62
2023/08/20 10:10:05;;;;;;;5.80;5.50;;;;;;;29.73;nan;97434.56;5019925;28;20212;-62
2023/08/20 10:12:34;;;;;;;5.90;5.50;;;;;;;29.86;nan;97438.41;5014085;28;20212;-61
2023/08/20 10:15:02;;;;;;;8.27;5.93;;;;;;;29.71;nan;97440.31;5016410;28;20615;-63
2023/08/20 10:17:31;;;;;;;6.83;6.43;;;;;;;29.84;nan;97443.34;5011941;28;20224;-62
2023/08/20 10:20:02;;;;;;;6.87;6.30;;;;;;;29.82;nan;97437.41;5017015;28;20207;-62
2023/08/20 10:22:34;;;;;;;6.23;5.93;;;;;;;29.84;nan;97440.63;5013924;28;20204;-62
2023/08/20 10:25:02;;;;;;;6.17;5.63;;;;;;;29.71;nan;97434.06;5017614;28;20212;-62
2023/08/20 10:27:32;;;;;;;10.13;5.60;;;;;;;29.84;nan;97440.63;5014989;28;20745;-60
2023/08/20 10:30:00;;;;;;;5.77;5.37;;;;;;;29.88;nan;97438.91;5018265;28;20285;-61
2023/08/20 10:32:48;;;;;;;5.00;4.73;;;;;;;29.97;nan;97426.13;4881699;28;20213;-63
2023/08/20 10:35:18;;;;;;;5.50;5.10;;;;;;;29.71;nan;97443.03;5017391;28;20219;-61
2023/08/20 10:38:02;;;;;;;6.73;6.33;;;;;;;29.81;nan;97447.50;5010795;28;21269;-60
2023/08/20 10:41:04;;;;;;;5.70;5.40;;;;;;;29.98;nan;97440.63;5016233;28;20676;-62
2023/08/20 10:43:33;;;;;;;5.60;5.20;;;;;;;30.18;nan;97439.41;4952774;28;20693;-62
2023/08/20 10:46:08;;;;;;;4.73;4.53;;;;;;;30.13;nan;97445.78;4948671;28;20233;-62
2023/08/20 10:48:38;;;;;;;5.20;4.90;;;;;;;30.30;nan;97438.84;4988099;28;20571;-62
2023/08/20 10:51:14;;;;;;;5.80;5.47;;;;;;;30.24;nan;97432.72;5012998;28;20215;-62
2023/08/20 10:53:43;;;;;;;5.37;4.97;;;;;;;30.11;nan;97438.97;5017566;28;20208;-62
2023/08/20 10:56:15;;;;;;;4.80;4.60;;;;;;;30.27;nan;97437.56;5015207;28;20242;-62
2023/08/20 10:58:45;;;;;;;4.30;4.00;;;;;;;30.38;nan;97431.84;5015446;28;20208;-62
2023/08/20 11:01:20;;;;;;;5.00;4.63;;;;;;;30.46;nan;97442.03;5009492;28;20306;-62
2023/08/20 11:03:49;;;;;;;4.80;4.60;;;;;;;30.21;nan;97418.84;5017362;28;20212;-61
2023/08/20 11:06:19;;;;;;;4.97;4.67;;;;;;;30.55;nan;97442.13;4885833;28;20851;-60
2023/08/20 11:08:47;;;;;;;5.03;4.73;;;;;;;30.63;nan;97429.69;5020243;28;20204;-61
2023/08/20 11:11:15;;;;;;;4.80;4.53;;;;;;;30.62;nan;97434.31;5015412;28;20211;-62
2023/08/20 11:13:43;;;;;;;5.93;5.53;;;;;;;30.61;nan;97421.78;5026604;28;20212;-62
2023/08/20 11:16:10;;;;;;;5.43;5.13;;;;;;;30.62;nan;97426.13;5016404;28;20219;-63
2023/08/20 11:18:38;;;;;;;5.33;4.97;;;;;;;30.69;nan;97431.16;5018777;28;20756;-62
2023/08/20 11:21:06;;;;;;;5.60;5.30;;;;;;;30.84;nan;97427.25;5017927;28;20242;-62
2023/08/20 11:23:38;;;;;;;6.23;5.80;;;;;;;30.88;nan;97433.72;5015726;28;20216;-63
2023/08/20 11:26:07;;;;;;;5.13;4.73;;;;;;;30.94;nan;97428.94;5016171;28;20782;-63
2023/08/20 11:28:35;;;;;;;5.20;4.90;;;;;;;31.10;nan;97430.16;5018797;28;20791;-61
2023/08/20 11:31:03;;;;;;;5.47;5.03;;;;;;;31.20;nan;97434.59;5014993;28;20204;-62
2023/08/20 11:33:31;;;;;;;5.37;5.07;;;;;;;31.02;nan;97425.44;5017450;28;20209;-62
2023/08/20 11:35:59;;;;;;;5.47;5.07;;;;;;;31.10;nan;97434.84;4894531;28;21607;-64
2023/08/20 11:38:27;;;;;;;5.33;4.97;;;;;;;31.19;nan;97430.25;5015434;28;20242;-63
2023/08/20 11:40:57;;;;;;;5.43;5.13;;;;;;;31.30;nan;97431.56;5020698;28;20208;-63
2023/08/20 11:43:25;;;;;;;5.50;5.20;;;;;;;31.40;nan;97435.16;5017655;28;20203;-62
2023/08/20 11:45:53;;;;;;;5.67;5.33;;;;;;;31.46;nan;97431.19;5017478;28;20378;-63
2023/08/20 11:48:22;;;;;;;5.80;5.30;;;;;;;31.49;nan;97425.06;5017724;28;20332;-63
2023/08/20 11:50:51;;;;;;;5.63;5.33;;;;;;;31.48;nan;97421.50;5019520;28;20212;-64